createdAt,value
2023-05-06T00:00:22.580Z,1.43
2023-05-06T00:02:51.047Z,1.57
2023-05-06T00:05:20.957Z,1.73
2023-05-06T00:07:49.357Z,1.20
2023-05-06T00:10:17.982Z,1.50
2023-05-06T00:12:46.541Z,1.50
2023-05-06T00:15:15.136Z,1.40
2023-05-06T00:17:43.431Z,1.80
2023-05-06T00:20:12.505Z,1.43
2023-05-06T00:22:42.160Z,1.43
2023-05-06T00:25:11.410Z,1.40
2023-05-06T00:27:40.057Z,1.43
2023-05-06T00:30:09.677Z,1.60
2023-05-06T00:32:37.974Z,1.50
2023-05-06T00:35:08.072Z,1.57
2023-05-06T00:37:36.712Z,1.90
2023-05-06T00:40:08.197Z,1.50
2023-05-06T00:42:36.497Z,1.77
2023-05-06T00:45:05.328Z,1.47
2023-05-06T00:47:34.613Z,1.60
2023-05-06T00:50:03.356Z,1.30
2023-05-06T00:52:32.103Z,1.60
2023-05-06T00:55:00.565Z,1.70
2023-05-06T00:57:30.283Z,1.50
2023-05-06T00:59:58.539Z,1.30
2023-05-06T01:02:39.578Z,1.50
2023-05-06T01:05:15.060Z,1.40
2023-05-06T01:07:48.818Z,1.40
2023-05-06T01:10:25.689Z,1.73
2023-05-06T01:13:06.706Z,1.70
2023-05-06T01:15:38.115Z,1.50
2023-05-06T01:18:11.519Z,1.57
2023-05-06T01:20:42.340Z,1.70
2023-05-06T01:23:13.819Z,1.80
2023-05-06T01:25:42.791Z,1.60
2023-05-06T01:28:12.778Z,2.37
2023-05-06T01:30:51.728Z,1.50
2023-05-06T01:33:27.296Z,1.40
2023-05-06T01:36:03.055Z,1.53
2023-05-06T01:38:43.813Z,1.50
2023-05-06T01:41:16.613Z,1.57
2023-05-06T01:43:46.749Z,1.40
2023-05-06T01:46:20.350Z,1.50
2023-05-06T01:48:53.206Z,2.23
2023-05-06T01:51:23.446Z,1.40
2023-05-06T01:53:53.353Z,1.50
2023-05-06T01:56:21.948Z,1.60
2023-05-06T01:58:50.795Z,2.07
2023-05-06T02:01:19.412Z,1.40
2023-05-06T02:03:48.207Z,1.30
2023-05-06T02:06:16.905Z,1.23
2023-05-06T02:08:45.504Z,1.40
2023-05-06T02:11:15.494Z,1.60
2023-05-06T02:13:44.056Z,1.50
2023-05-06T02:16:12.826Z,1.57
2023-05-06T02:18:41.607Z,1.60
2023-05-06T02:21:12.137Z,1.47
2023-05-06T02:23:40.937Z,1.43
2023-05-06T02:26:09.595Z,1.30
2023-05-06T02:28:39.572Z,1.47
2023-05-06T02:31:08.122Z,2.10
2023-05-06T02:33:36.838Z,1.43
2023-05-06T02:36:06.213Z,1.50
2023-05-06T02:38:34.820Z,1.57
2023-05-06T02:41:03.810Z,1.50
2023-05-06T02:43:32.347Z,1.60
2023-05-06T02:46:02.387Z,1.50
2023-05-06T02:48:31.186Z,1.33
2023-05-06T02:51:00.015Z,1.27
2023-05-06T02:53:28.397Z,1.40
2023-05-06T02:55:56.612Z,1.70
2023-05-06T02:58:26.298Z,1.70
2023-05-06T03:00:54.713Z,1.93
2023-05-06T03:03:24.449Z,2.07
2023-05-06T03:05:52.834Z,1.70
2023-05-06T03:08:21.073Z,2.33
2023-05-06T03:10:50.459Z,1.60
2023-05-06T03:13:18.712Z,1.50
2023-05-06T03:15:52.187Z,1.43
2023-05-06T03:18:20.493Z,1.70
2023-05-06T03:20:51.103Z,2.27
2023-05-06T03:23:19.580Z,1.67
2023-05-06T03:25:47.791Z,1.63
2023-05-06T03:28:16.040Z,1.60
2023-05-06T03:30:44.400Z,1.60
2023-05-06T03:33:12.715Z,1.63
2023-05-06T03:35:41.247Z,1.90
2023-05-06T03:38:11.509Z,2.10
2023-05-06T03:40:40.233Z,2.03
2023-05-06T03:43:08.573Z,1.70
2023-05-06T03:45:36.851Z,1.70
2023-05-06T03:48:05.421Z,1.50
2023-05-06T03:50:33.960Z,1.40
2023-05-06T03:53:02.412Z,1.60
2023-05-06T03:55:32.350Z,1.97
2023-05-06T03:58:00.753Z,1.67
2023-05-06T04:00:29.032Z,1.60
2023-05-06T04:02:57.651Z,1.57
2023-05-06T04:05:26.192Z,2.00
2023-05-06T04:07:54.579Z,3.00
2023-05-06T04:10:22.904Z,1.60
2023-05-06T04:12:53.057Z,1.50
2023-05-06T04:15:21.741Z,1.73
2023-05-06T04:17:50.606Z,1.77
2023-05-06T04:20:19.329Z,1.50
2023-05-06T04:22:47.591Z,1.63
2023-05-06T04:25:16.406Z,2.97
2023-05-06T04:27:44.659Z,1.70
2023-05-06T04:30:15.441Z,1.80
2023-05-06T04:32:43.810Z,1.60
2023-05-06T04:35:12.195Z,1.70
2023-05-06T04:37:42.101Z,1.60
2023-05-06T04:40:11.829Z,1.80
2023-05-06T04:42:40.724Z,1.63
2023-05-06T04:45:10.340Z,1.80
2023-05-06T04:47:40.190Z,1.50
2023-05-06T04:50:09.659Z,2.50
2023-05-06T04:52:38.024Z,1.90
2023-05-06T04:55:07.295Z,1.80
2023-05-06T04:57:35.727Z,2.10
2023-05-06T05:00:04.686Z,2.60
2023-05-06T05:02:33.072Z,2.10
2023-05-06T05:05:02.797Z,1.90
2023-05-06T05:07:31.097Z,2.00
2023-05-06T05:09:59.455Z,2.17
2023-05-06T05:12:27.771Z,1.70
2023-05-06T05:14:56.100Z,2.10
2023-05-06T05:17:24.369Z,2.20
2023-05-06T05:19:52.942Z,2.80
2023-05-06T05:22:22.756Z,2.07
2023-05-06T05:24:51.124Z,2.30
2023-05-06T05:27:19.417Z,2.00
2023-05-06T05:29:47.720Z,2.13
2023-05-06T05:32:16.234Z,2.20
2023-05-06T05:34:44.579Z,4.10
2023-05-06T05:37:12.901Z,2.80
2023-05-06T05:39:42.640Z,2.90
2023-05-06T05:42:10.903Z,2.60
2023-05-06T05:44:39.205Z,2.77
2023-05-06T05:47:07.764Z,3.20
2023-05-06T05:49:36.227Z,2.60
2023-05-06T05:52:04.668Z,3.10
2023-05-06T05:54:32.928Z,3.67
2023-05-06T05:57:03.056Z,3.03
2023-05-06T05:59:32.850Z,4.77
2023-05-06T06:02:01.245Z,3.07
2023-05-06T06:04:29.599Z,3.20
2023-05-06T06:06:58.990Z,3.43
2023-05-06T06:09:27.303Z,3.07
2023-05-06T06:11:56.144Z,3.27
2023-05-06T06:14:25.857Z,3.50
2023-05-06T06:16:54.154Z,2.70
2023-05-06T06:19:22.432Z,3.20
2023-05-06T06:21:50.726Z,3.20
2023-05-06T06:24:19.032Z,3.63
2023-05-06T06:26:48.254Z,4.03
2023-05-06T06:29:16.687Z,4.00
2023-05-06T06:31:46.790Z,3.50
2023-05-06T06:34:15.106Z,3.97
2023-05-06T06:36:45.347Z,3.83
2023-05-06T06:39:13.883Z,4.03
2023-05-06T06:41:42.198Z,5.97
2023-05-06T06:44:10.524Z,4.07
2023-05-06T06:46:38.916Z,4.50
2023-05-06T06:49:08.798Z,5.10
2023-05-06T06:51:37.240Z,5.10
2023-05-06T06:54:05.805Z,5.20
2023-05-06T06:56:34.544Z,5.53
2023-05-06T06:59:03.142Z,5.33
2023-05-06T07:01:32.022Z,3.93
2023-05-06T07:04:00.422Z,6.10
2023-05-06T07:06:30.174Z,4.13
2023-05-06T07:08:58.520Z,4.23
2023-05-06T07:11:27.073Z,3.63
2023-05-06T07:13:55.366Z,4.17
2023-05-06T07:16:23.871Z,4.70
2023-05-06T07:18:53.865Z,4.67
2023-05-06T07:21:22.282Z,3.90
2023-05-06T07:23:51.964Z,4.63
2023-05-06T07:26:20.274Z,4.13
2023-05-06T07:28:48.719Z,4.30
2023-05-06T07:31:21.100Z,4.38
2023-05-06T07:33:49.965Z,4.23
2023-05-06T07:36:18.230Z,4.13
2023-05-06T07:38:46.552Z,4.30
2023-05-06T07:41:16.338Z,5.30
2023-05-06T07:43:44.707Z,4.10
2023-05-06T07:46:13.171Z,4.17
2023-05-06T07:48:41.572Z,4.80
2023-05-06T07:51:09.952Z,4.83
2023-05-06T07:53:40.121Z,9.23
2023-05-06T07:56:08.575Z,4.38
2023-05-06T07:58:38.410Z,3.80
2023-05-06T08:01:06.827Z,4.00
2023-05-06T08:03:35.484Z,3.83
2023-05-06T08:06:03.977Z,4.07
2023-05-06T08:08:32.393Z,3.45
2023-05-06T08:11:01.080Z,4.00
2023-05-06T08:13:30.964Z,3.38
2023-05-06T08:16:02.473Z,4.32
2023-05-06T08:18:31.034Z,4.20
2023-05-06T08:20:59.367Z,4.35
2023-05-06T08:23:27.822Z,3.30
2023-05-06T08:25:56.103Z,4.00
2023-05-06T08:28:25.282Z,4.15
2023-05-06T08:30:54.372Z,4.72
2023-05-06T08:33:24.145Z,4.78
2023-05-06T08:35:52.568Z,4.38
2023-05-06T08:38:20.911Z,4.05
2023-05-06T08:40:50.480Z,5.40
2023-05-06T08:43:22.566Z,5.10
2023-05-06T08:45:51.852Z,5.75
2023-05-06T08:48:20.285Z,4.28
2023-05-06T08:50:52.007Z,3.70
2023-05-06T08:53:20.454Z,3.55
2023-05-06T08:55:50.655Z,4.03
2023-05-06T08:58:19.929Z,4.70
2023-05-06T09:00:48.893Z,4.95
2023-05-06T09:03:17.371Z,4.82
2023-05-06T09:05:45.809Z,6.55
2023-05-06T09:08:15.994Z,4.75
2023-05-06T09:10:47.744Z,6.53
2023-05-06T09:13:17.947Z,6.72
2023-05-06T09:15:48.636Z,7.18
2023-05-06T09:18:17.704Z,6.50
2023-05-06T09:20:47.544Z,9.27
2023-05-06T09:23:18.818Z,8.25
2023-05-06T09:25:49.956Z,8.27
2023-05-06T09:28:18.282Z,7.20
2023-05-06T09:30:47.814Z,8.48
2023-05-06T09:33:17.059Z,6.40
2023-05-06T09:35:46.164Z,6.57
2023-05-06T09:38:14.477Z,6.68
2023-05-06T09:40:44.235Z,7.18
2023-05-06T09:43:15.714Z,5.85
2023-05-06T09:45:46.351Z,6.63
2023-05-06T09:48:16.150Z,4.15
2023-05-06T09:50:45.194Z,3.97
2023-05-06T09:53:14.654Z,4.18
2023-05-06T09:55:45.084Z,4.15
2023-05-06T09:58:14.318Z,3.50
2023-05-06T10:00:43.612Z,3.33
2023-05-06T10:03:13.823Z,4.57
2023-05-06T10:05:43.236Z,3.00
2023-05-06T10:08:15.463Z,2.30
2023-05-06T10:10:47.189Z,3.15
2023-05-06T10:13:17.406Z,3.53
2023-05-06T10:15:48.735Z,4.32
2023-05-06T10:18:18.543Z,7.60
2023-05-06T10:20:48.288Z,2.10
2023-05-06T10:23:24.619Z,3.75
2023-05-06T10:25:58.525Z,2.78
2023-05-06T10:28:31.573Z,2.15
2023-05-06T10:31:00.561Z,1.60
2023-05-06T10:33:30.555Z,2.00
2023-05-06T10:36:08.906Z,4.97
2023-05-06T10:38:43.488Z,2.08
2023-05-06T10:41:13.808Z,1.63
2023-05-06T10:43:43.135Z,2.85
2023-05-06T10:46:13.067Z,1.70
2023-05-06T10:49:17.664Z,2.08
2023-05-06T10:51:49.936Z,2.17
2023-05-06T10:54:25.716Z,2.45
2023-05-06T10:59:50.739Z,2.95
2023-05-06T11:02:21.419Z,2.13
2023-05-06T11:04:53.957Z,2.55
2023-05-06T11:07:25.995Z,3.38
2023-05-06T11:09:58.620Z,3.25
2023-05-06T11:12:55.934Z,3.22
2023-05-06T11:15:39.597Z,3.53
2023-05-06T11:18:40.982Z,2.72
2023-05-06T11:21:38.365Z,3.95
2023-05-06T11:24:13.855Z,2.60
2023-05-06T11:26:45.416Z,3.03
2023-05-06T11:29:16.320Z,3.40
2023-05-06T11:31:46.847Z,3.38
2023-05-06T11:34:23.489Z,2.80
2023-05-06T11:36:55.449Z,4.95
2023-05-06T11:39:23.682Z,3.65
2023-05-06T11:41:53.840Z,4.32
2023-05-06T11:44:26.809Z,4.32
2023-05-06T11:46:59.745Z,3.25
2023-05-06T11:49:28.659Z,4.10
2023-05-06T11:51:58.201Z,4.40
2023-05-06T11:54:28.052Z,5.25
2023-05-06T11:56:57.494Z,3.70
2023-05-06T11:59:31.858Z,3.97
2023-05-06T12:02:03.451Z,3.92
2023-05-06T12:04:40.022Z,3.08
2023-05-06T12:07:09.804Z,2.83
2023-05-06T12:09:39.070Z,2.45
2023-05-06T12:12:09.219Z,3.70
2023-05-06T12:14:38.337Z,2.80
2023-05-06T12:17:08.462Z,1.90
2023-05-06T12:19:37.326Z,2.40
2023-05-06T12:22:19.452Z,2.00
2023-05-06T12:24:48.359Z,2.17
2023-05-06T12:27:29.409Z,1.90
2023-05-06T12:29:57.709Z,1.75
2023-05-06T12:32:27.413Z,2.17
2023-05-06T12:34:56.579Z,3.35
2023-05-06T12:37:30.186Z,3.78
2023-05-06T12:39:59.669Z,2.42
2023-05-06T12:42:28.532Z,2.75
2023-05-06T12:44:57.853Z,2.30
2023-05-06T12:47:27.974Z,2.90
2023-05-06T12:49:58.709Z,2.97
2023-05-06T12:52:28.784Z,5.95
2023-05-06T12:54:58.040Z,3.47
2023-05-06T12:57:26.349Z,2.67
2023-05-06T12:59:56.495Z,2.42
2023-05-06T13:02:25.002Z,2.85
2023-05-06T13:04:54.798Z,2.30
2023-05-06T13:07:23.194Z,2.47
2023-05-06T13:09:51.510Z,2.30
2023-05-06T13:12:19.974Z,3.00
2023-05-06T13:14:48.494Z,2.60
2023-05-06T13:17:16.866Z,2.95
2023-05-06T13:19:45.312Z,3.88
2023-05-06T13:22:15.011Z,2.85
2023-05-06T13:24:43.295Z,2.72
2023-05-06T13:27:11.901Z,3.08
2023-05-06T13:29:40.495Z,2.80
2023-05-06T13:32:09.132Z,4.82
2023-05-06T13:34:37.631Z,2.60
2023-05-06T13:37:05.878Z,2.45
2023-05-06T13:39:35.935Z,3.20
2023-05-06T13:42:06.662Z,3.17
2023-05-06T13:44:36.400Z,2.30
2023-05-06T13:47:04.879Z,3.65
2023-05-06T13:49:33.163Z,2.70
2023-05-06T13:52:01.719Z,4.18
2023-05-06T13:54:30.004Z,2.88
2023-05-06T13:56:59.738Z,2.47
2023-05-06T13:59:27.973Z,3.13
2023-05-06T14:01:57.040Z,4.05
2023-05-06T14:04:25.375Z,3.42
2023-05-06T14:06:53.690Z,2.63
2023-05-06T14:09:21.909Z,3.25
2023-05-06T14:11:50.124Z,3.17
2023-05-06T14:14:19.793Z,3.40
2023-05-06T14:16:48.042Z,3.30
2023-05-06T14:19:16.393Z,3.15
2023-05-06T14:21:44.633Z,2.38
2023-05-06T14:24:12.944Z,2.28
2023-05-06T14:26:41.636Z,1.95
2023-05-06T14:29:10.027Z,1.75
2023-05-06T14:31:39.931Z,2.08
2023-05-06T14:34:08.350Z,2.97
2023-05-06T14:36:36.654Z,1.67
2023-05-06T14:39:05.000Z,1.63
2023-05-06T14:41:33.314Z,1.52
2023-05-06T14:44:01.612Z,1.50
2023-05-06T14:46:29.980Z,1.92
2023-05-06T14:48:59.676Z,1.50
2023-05-06T14:51:27.986Z,1.73
2023-05-06T14:53:56.446Z,1.73
2023-05-06T14:56:24.701Z,4.13
2023-05-06T14:58:53.198Z,2.88
2023-05-06T15:01:21.564Z,1.73
2023-05-06T15:03:51.097Z,1.50
2023-05-06T15:06:20.833Z,1.90
2023-05-06T15:08:49.263Z,2.72
2023-05-06T15:11:17.563Z,1.70
2023-05-06T15:13:45.878Z,2.25
2023-05-06T15:16:14.200Z,1.27
2023-05-06T15:18:44.887Z,2.35
2023-05-06T15:21:13.523Z,2.05
2023-05-06T15:23:43.205Z,1.70
2023-05-06T15:26:11.500Z,3.45
2023-05-06T15:28:39.817Z,3.65
2023-05-06T15:31:08.556Z,4.35
2023-05-06T15:33:37.010Z,6.45
2023-05-06T15:36:05.590Z,5.18
2023-05-06T15:39:00.749Z,6.18
2023-05-06T15:41:30.784Z,2.65
2023-05-06T15:43:59.674Z,1.45
2023-05-06T15:46:28.562Z,1.30
2023-05-06T15:49:17.449Z,2.75
2023-05-06T15:51:45.583Z,1.00
2023-05-06T15:54:18.383Z,0.93
2023-05-06T15:56:47.639Z,2.45
2023-05-06T15:59:16.157Z,3.13
2023-05-06T16:04:17.431Z,1.30
2023-05-06T16:06:45.865Z,1.73
2023-05-06T16:09:15.624Z,1.20
2023-05-06T16:11:43.885Z,1.10
2023-05-06T16:14:12.147Z,1.20
2023-05-06T16:16:40.449Z,2.72
2023-05-06T16:19:09.163Z,2.67
2023-05-06T16:21:37.538Z,1.98
2023-05-06T16:24:06.095Z,2.03
2023-05-06T16:26:36.149Z,2.28
2023-05-06T16:29:04.376Z,4.00
2023-05-06T16:31:33.760Z,2.55
2023-05-06T16:34:02.100Z,1.65
2023-05-06T16:36:30.328Z,1.50
2023-05-06T16:38:58.600Z,1.10
2023-05-06T16:41:26.891Z,1.55
2023-05-06T16:43:56.574Z,1.27
2023-05-06T16:46:26.215Z,1.17
2023-05-06T16:48:54.779Z,1.30
2023-05-06T16:51:23.046Z,1.17
2023-05-06T16:53:51.540Z,1.48
2023-05-06T16:56:19.809Z,1.55
2023-05-06T16:58:48.076Z,1.15
2023-05-06T17:01:17.738Z,1.15
2023-05-06T17:03:46.206Z,1.15
2023-05-06T17:06:14.765Z,1.70
2023-05-06T17:08:43.319Z,1.30
2023-05-06T17:11:11.588Z,2.10
2023-05-06T17:13:39.944Z,1.92
2023-05-06T17:16:08.780Z,4.97
2023-05-06T17:18:38.556Z,2.20
2023-05-06T17:21:08.850Z,1.63
2023-05-06T17:23:37.143Z,1.55
2023-05-06T17:26:10.118Z,2.42
2023-05-06T17:28:38.837Z,1.05
2023-05-06T17:31:07.287Z,2.42
2023-05-06T17:33:35.562Z,1.13
2023-05-06T17:36:05.629Z,1.90
2023-05-06T17:38:34.284Z,3.40
2023-05-06T17:41:02.587Z,3.08
2023-05-06T17:43:30.951Z,2.42
2023-05-06T17:45:59.365Z,2.70
2023-05-06T17:48:27.831Z,3.08
2023-05-06T17:51:00.819Z,4.82
2023-05-06T17:53:32.358Z,5.70
2023-05-06T17:56:00.700Z,5.38
2023-05-06T17:58:28.994Z,5.95
2023-05-06T18:00:57.516Z,4.90
2023-05-06T18:03:25.907Z,4.25
2023-05-06T18:05:54.359Z,5.57
2023-05-06T18:08:22.629Z,3.88
2023-05-06T18:10:52.290Z,4.85
2023-05-06T18:13:20.721Z,6.40
2023-05-06T18:15:49.146Z,11.15
2023-05-06T18:18:17.464Z,10.93
2023-05-06T18:20:45.812Z,12.60
2023-05-06T18:23:14.167Z,7.03
2023-05-06T18:25:42.471Z,7.95
2023-05-06T18:28:13.323Z,6.18
2023-05-06T18:30:42.036Z,4.10
2023-05-06T18:33:10.338Z,5.57
2023-05-06T18:35:38.720Z,3.40
2023-05-06T18:38:07.017Z,4.05
2023-05-06T18:40:36.844Z,3.72
2023-05-06T18:43:05.102Z,4.60
2023-05-06T18:45:34.825Z,3.92
2023-05-06T18:48:03.232Z,5.53
2023-05-06T18:50:31.561Z,4.50
2023-05-06T18:52:59.839Z,4.47
2023-05-06T18:55:28.260Z,2.72
2023-05-06T18:57:57.109Z,2.33
2023-05-06T19:00:25.848Z,2.40
2023-05-06T19:02:56.273Z,3.80
2023-05-06T19:05:24.675Z,2.63
2023-05-06T19:07:53.069Z,2.90
2023-05-06T19:10:21.961Z,3.65
2023-05-06T19:12:50.910Z,5.25
2023-05-06T19:15:20.285Z,4.72
2023-05-06T19:17:48.734Z,3.33
2023-05-06T19:20:19.192Z,4.57
2023-05-06T19:22:47.567Z,3.92
2023-05-06T19:25:16.135Z,3.75
2023-05-06T19:27:44.401Z,2.20
2023-05-06T19:30:13.118Z,2.47
2023-05-06T19:32:41.452Z,2.78
2023-05-06T19:35:11.107Z,1.90
2023-05-06T19:37:41.223Z,4.03
2023-05-06T19:40:10.604Z,1.73
2023-05-06T19:42:38.829Z,1.90
2023-05-06T19:45:10.903Z,1.70
2023-05-06T19:47:39.721Z,1.90
2023-05-06T19:50:09.799Z,1.90
2023-05-06T19:52:38.317Z,1.77
2023-05-06T19:55:09.764Z,1.73
2023-05-06T19:57:38.276Z,1.70
2023-05-06T20:00:10.396Z,2.33
2023-05-06T20:02:39.406Z,3.33
2023-05-06T20:05:09.178Z,1.73
2023-05-06T20:07:38.897Z,1.85
2023-05-06T20:10:10.512Z,3.17
2023-05-06T20:12:40.164Z,2.28
2023-05-06T20:15:09.964Z,2.10
2023-05-06T20:17:38.574Z,1.70
2023-05-06T20:20:09.994Z,2.10
2023-05-06T20:22:38.897Z,1.60
2023-05-06T20:25:16.324Z,2.00
2023-05-06T20:27:45.369Z,1.80
2023-05-06T20:30:14.199Z,1.92
2023-05-06T20:32:42.833Z,1.70
2023-05-06T20:35:12.241Z,2.35
2023-05-06T20:37:42.023Z,2.05
2023-05-06T20:40:13.702Z,1.60
2023-05-06T20:42:44.858Z,1.70
2023-05-06T20:45:13.420Z,3.47
2023-05-06T20:47:42.564Z,2.63
2023-05-06T20:50:17.337Z,2.17
2023-05-06T20:52:46.757Z,1.50
2023-05-06T20:55:16.591Z,1.50
2023-05-06T20:57:45.439Z,1.50
2023-05-06T21:00:14.632Z,1.75
2023-05-06T21:02:43.173Z,1.70
2023-05-06T21:05:12.348Z,2.13
2023-05-06T21:07:41.254Z,1.77
2023-05-06T21:10:11.916Z,1.80
2023-05-06T21:12:47.789Z,3.70
2023-05-06T21:15:16.780Z,2.20
2023-05-06T21:17:45.240Z,2.97
2023-05-06T21:20:14.957Z,2.42
2023-05-06T21:22:43.290Z,3.13
2023-05-06T21:25:13.418Z,4.18
2023-05-06T21:27:43.297Z,4.40
2023-05-06T21:30:12.340Z,3.88
2023-05-06T21:32:41.074Z,3.65
2023-05-06T21:35:10.424Z,3.28
2023-05-06T21:37:39.695Z,2.55
2023-05-06T21:40:09.538Z,3.17
2023-05-06T21:42:38.381Z,3.28
2023-05-06T21:45:09.680Z,2.30
2023-05-06T21:47:38.397Z,2.15
2023-05-06T21:50:07.987Z,2.08
2023-05-06T21:52:36.270Z,1.63
2023-05-06T21:55:05.190Z,2.20
2023-05-06T21:57:33.840Z,1.50
2023-05-06T22:00:07.082Z,1.63
2023-05-06T22:02:37.240Z,2.08
2023-05-06T22:05:07.083Z,1.85
2023-05-06T22:07:35.941Z,1.50
2023-05-06T22:10:04.951Z,2.83
2023-05-06T22:12:33.313Z,2.05
2023-05-06T22:15:01.643Z,1.70
2023-05-06T22:17:30.700Z,2.00
2023-05-06T22:20:03.002Z,2.50
2023-05-06T22:22:31.805Z,1.60
2023-05-06T22:25:01.320Z,1.90
2023-05-06T22:27:29.684Z,2.17
2023-05-06T22:29:58.047Z,1.60
2023-05-06T22:32:26.387Z,1.83
2023-05-06T22:34:54.728Z,1.80
2023-05-06T22:37:24.381Z,2.13
2023-05-06T22:39:53.728Z,2.60
2023-05-06T22:42:22.067Z,1.60
2023-05-06T22:44:50.399Z,1.83
2023-05-06T22:47:19.909Z,2.00
2023-05-06T22:49:49.393Z,2.33
2023-05-06T22:52:19.199Z,2.80
2023-05-06T22:54:48.845Z,1.70
2023-05-06T22:57:19.187Z,2.55
2023-05-06T22:59:47.588Z,1.57
2023-05-06T23:02:15.848Z,3.03
2023-05-06T23:04:44.251Z,3.97
2023-05-06T23:07:13.890Z,1.45
2023-05-06T23:09:42.320Z,1.42
2023-05-06T23:12:11.970Z,1.70
2023-05-06T23:14:40.281Z,1.80
2023-05-06T23:17:08.693Z,1.60
2023-05-06T23:19:37.116Z,1.40
2023-05-06T23:22:05.697Z,1.77
2023-05-06T23:24:33.956Z,1.93
2023-05-06T23:27:02.453Z,2.27
2023-05-06T23:29:32.159Z,1.50
2023-05-06T23:32:00.589Z,1.60
2023-05-06T23:34:28.827Z,1.55
2023-05-06T23:36:57.411Z,1.40
2023-05-06T23:39:25.681Z,2.00
2023-05-06T23:41:54.015Z,1.70
2023-05-06T23:44:22.594Z,1.95
2023-05-06T23:46:52.397Z,1.80
2023-05-06T23:49:20.938Z,1.65
2023-05-06T23:51:49.285Z,1.77
2023-05-06T23:54:17.639Z,1.60
2023-05-06T23:56:46.048Z,2.10
2023-05-06T23:59:14.403Z,2.20
